createdAt,value
2023-03-24T00:02:25.571Z,12.05
2023-03-24T00:04:53.316Z,12.03
2023-03-24T00:07:25.164Z,12.12
2023-03-24T00:09:51.889Z,12.27
2023-03-24T00:12:18.637Z,12.18
2023-03-24T00:14:52.401Z,12.07
2023-03-24T00:17:20.451Z,12.06
2023-03-24T00:19:47.308Z,12.24
2023-03-24T00:22:14.332Z,12.19
2023-03-24T00:24:41.817Z,12.01
2023-03-24T00:27:08.554Z,12.08
2023-03-24T00:29:36.262Z,12.06
2023-03-24T00:32:03.468Z,11.93
2023-03-24T00:34:31.266Z,12.01
2023-03-24T00:36:58.017Z,11.91
2023-03-24T00:39:24.558Z,11.70
2023-03-24T00:41:51.319Z,11.87
2023-03-24T00:44:23.039Z,11.97
2023-03-24T00:46:57.951Z,12.08
2023-03-24T00:49:43.048Z,12.13
2023-03-24T00:52:12.583Z,12.18
2023-03-24T00:54:43.173Z,12.24
2023-03-24T00:57:13.071Z,12.28
2023-03-24T00:59:42.843Z,12.13
2023-03-24T01:02:14.466Z,12.12
2023-03-24T01:04:41.414Z,12.16
2023-03-24T01:07:13.454Z,12.13
2023-03-24T01:09:41.501Z,12.18
2023-03-24T01:12:08.537Z,11.97
2023-03-24T01:14:36.665Z,12.13
2023-03-24T01:17:03.707Z,11.86
2023-03-24T01:19:32.183Z,12.16
2023-03-24T01:21:59.919Z,12.19
2023-03-24T01:24:31.266Z,12.25
2023-03-24T01:26:57.802Z,12.30
2023-03-24T01:29:24.344Z,12.23
2023-03-24T01:31:51.238Z,12.20
2023-03-24T01:34:18.229Z,12.19
2023-03-24T01:36:44.846Z,12.06
2023-03-24T01:39:17.554Z,12.08
2023-03-24T01:41:44.883Z,12.12
2023-03-24T01:44:28.644Z,11.83
2023-03-24T01:46:58.064Z,11.99
2023-03-24T01:49:31.818Z,12.06
2023-03-24T01:52:03.485Z,12.03
2023-03-24T01:54:36.526Z,11.97
2023-03-24T01:57:23.570Z,12.07
2023-03-24T01:59:53.314Z,12.11
2023-03-24T02:02:27.187Z,12.12
2023-03-24T02:04:59.496Z,12.04
2023-03-24T02:07:34.039Z,12.20
2023-03-24T02:10:09.583Z,12.09
2023-03-24T02:12:43.201Z,12.16
2023-03-24T02:15:20.567Z,12.22
2023-03-24T02:18:06.187Z,12.25
2023-03-24T02:21:01.367Z,12.25
2023-03-24T02:23:50.157Z,12.18
2023-03-24T02:26:36.392Z,12.18
2023-03-24T02:29:37.256Z,12.13
2023-03-24T02:32:31.293Z,12.27
2023-03-24T02:38:46.702Z,12.27
2023-03-24T02:41:29.844Z,12.29
2023-03-24T02:47:29.594Z,12.13
2023-03-24T02:50:09.584Z,12.01
2023-03-24T02:52:58.272Z,11.91
2023-03-24T02:55:52.437Z,11.70
2023-03-24T02:58:37.944Z,11.97
2023-03-24T03:01:14.157Z,11.81
2023-03-24T03:03:49.280Z,11.57
2023-03-24T03:06:32.980Z,11.73
2023-03-24T03:09:04.060Z,11.70
2023-03-24T03:11:30.661Z,11.66
2023-03-24T03:14:05.172Z,11.61
2023-03-24T03:16:48.359Z,11.57
2023-03-24T03:19:26.701Z,11.54
2023-03-24T03:21:54.797Z,11.20
2023-03-24T03:24:27.780Z,11.68
2023-03-24T03:27:01.127Z,11.67
2023-03-24T03:29:39.017Z,11.59
2023-03-24T03:32:13.879Z,11.64
2023-03-24T03:34:50.366Z,11.63
2023-03-24T03:37:28.141Z,11.61
2023-03-24T03:40:19.898Z,11.53
2023-03-24T03:42:47.400Z,11.22
2023-03-24T03:45:18.395Z,11.45
2023-03-24T03:47:46.630Z,11.36
2023-03-24T03:50:13.889Z,11.03
2023-03-24T03:52:41.843Z,11.54
2023-03-24T03:55:10.754Z,11.57
2023-03-24T03:57:39.446Z,11.57
2023-03-24T04:00:15.538Z,11.57
2023-03-24T04:03:06.678Z,11.59
2023-03-24T04:05:41.148Z,11.62
2023-03-24T04:08:29.052Z,11.63
2023-03-24T04:11:13.153Z,11.65
2023-03-24T04:13:56.519Z,11.45
2023-03-24T04:16:52.439Z,11.65
2023-03-24T04:19:48.591Z,11.35
2023-03-24T04:22:35.073Z,11.90
2023-03-24T04:25:41.550Z,12.06
2023-03-24T04:28:49.812Z,12.20
2023-03-24T04:31:35.479Z,12.35
2023-03-24T04:34:07.784Z,12.08
2023-03-24T04:36:44.268Z,12.27
2023-03-24T04:39:26.438Z,12.47
2023-03-24T04:41:56.412Z,12.20
2023-03-24T04:44:26.603Z,12.04
2023-03-24T04:46:58.236Z,12.09
2023-03-24T04:49:26.310Z,12.17
2023-03-24T04:51:58.506Z,12.19
2023-03-24T04:54:25.727Z,12.23
2023-03-24T04:56:55.060Z,12.05
2023-03-24T04:59:21.901Z,12.05
2023-03-24T05:01:50.112Z,12.21
2023-03-24T05:04:18.378Z,12.19
2023-03-24T05:06:48.067Z,12.01
2023-03-24T05:09:18.164Z,12.07
2023-03-24T05:11:47.514Z,12.23
2023-03-24T05:14:16.364Z,12.18
2023-03-24T05:16:43.280Z,11.82
2023-03-24T05:19:15.294Z,12.17
2023-03-24T05:21:43.306Z,11.92
2023-03-24T05:24:12.321Z,11.80
2023-03-24T05:26:39.655Z,12.03
2023-03-24T05:29:07.167Z,12.06
2023-03-24T05:31:36.378Z,12.05
2023-03-24T05:34:06.215Z,12.07
2023-03-24T05:36:36.580Z,11.90
2023-03-24T05:39:04.694Z,11.74
2023-03-24T05:41:36.247Z,12.03
2023-03-24T05:44:09.374Z,12.02
2023-03-24T05:46:40.682Z,11.60
2023-03-24T05:49:07.626Z,12.18
2023-03-24T05:51:34.667Z,12.03
2023-03-24T05:54:01.964Z,12.14
2023-03-24T05:56:34.564Z,12.11
2023-03-24T05:59:02.928Z,12.07
2023-03-24T06:01:43.809Z,12.15
2023-03-24T06:04:14.519Z,12.16
2023-03-24T06:06:45.621Z,12.25
2023-03-24T06:09:23.070Z,12.22
2023-03-24T06:11:51.691Z,12.24
2023-03-24T06:14:28.744Z,12.25
2023-03-24T06:16:59.331Z,12.33
2023-03-24T06:19:27.257Z,12.33
2023-03-24T06:21:55.830Z,12.40
2023-03-24T06:24:22.874Z,12.21
2023-03-24T06:26:50.640Z,12.46
2023-03-24T06:29:22.552Z,12.41
2023-03-24T06:31:49.342Z,12.45
2023-03-24T06:34:16.456Z,12.60
2023-03-24T06:36:43.601Z,12.53
2023-03-24T06:39:11.257Z,12.54
2023-03-24T06:41:37.905Z,12.59
2023-03-24T06:44:05.462Z,12.52
2023-03-24T06:46:32.093Z,12.56
2023-03-24T06:49:00.050Z,12.27
2023-03-24T06:51:26.829Z,12.48
2023-03-24T06:53:55.502Z,12.46
2023-03-24T06:56:22.296Z,12.53
2023-03-24T06:58:49.696Z,12.55
2023-03-24T07:01:17.361Z,12.61
2023-03-24T07:03:49.951Z,12.62
2023-03-24T07:06:18.721Z,12.66
2023-03-24T07:11:27.286Z,12.87
2023-03-24T07:13:54.600Z,13.06
2023-03-24T07:16:33.726Z,12.62
2023-03-24T07:19:02.098Z,12.81
2023-03-24T07:21:31.311Z,12.77
2023-03-24T07:24:02.545Z,12.75
2023-03-24T07:26:32.534Z,12.76
2023-03-24T07:29:01.792Z,12.39
2023-03-24T07:31:29.044Z,12.76
2023-03-24T07:33:56.585Z,12.69
2023-03-24T07:36:23.705Z,12.54
2023-03-24T07:38:54.151Z,12.72
2023-03-24T07:41:21.093Z,12.79
2023-03-24T07:43:49.479Z,12.97
2023-03-24T07:46:19.016Z,12.98
2023-03-24T07:48:59.413Z,13.01
2023-03-24T07:51:29.303Z,13.06
2023-03-24T07:54:02.707Z,13.09
2023-03-24T07:56:34.079Z,12.86
2023-03-24T07:59:04.179Z,12.91
2023-03-24T08:01:31.169Z,12.92
2023-03-24T08:04:03.329Z,12.92
2023-03-24T08:06:31.171Z,12.89
2023-03-24T08:09:08.252Z,12.75
2023-03-24T08:11:36.510Z,12.77
2023-03-24T08:14:07.355Z,12.82
2023-03-24T08:19:19.274Z,12.74
2023-03-24T08:21:48.526Z,12.60
2023-03-24T08:27:07.308Z,12.27
2023-03-24T08:29:45.116Z,12.13
2023-03-24T08:32:25.066Z,12.20
2023-03-24T08:34:57.256Z,12.15
2023-03-24T08:37:35.024Z,11.92
2023-03-24T08:40:10.326Z,12.05
2023-03-24T08:51:40.933Z,12.13
2023-03-24T08:54:09.704Z,12.05
2023-03-24T08:56:46.773Z,12.12
2023-03-24T08:59:15.521Z,12.15
2023-03-24T09:01:49.350Z,12.21
2023-03-24T09:04:20.360Z,12.15
2023-03-24T09:06:50.449Z,12.45
2023-03-24T09:09:20.376Z,12.48
2023-03-24T09:11:54.243Z,12.17
2023-03-24T09:14:22.799Z,12.35
2023-03-24T09:16:55.628Z,11.82
2023-03-24T09:19:23.021Z,11.83
2023-03-24T09:21:53.848Z,11.88
2023-03-24T09:24:30.006Z,11.43
2023-03-24T09:27:00.400Z,11.47
2023-03-24T09:29:31.169Z,11.78
2023-03-24T09:32:01.166Z,11.67
2023-03-24T09:34:30.330Z,11.55
2023-03-24T09:37:00.892Z,11.35
2023-03-24T09:39:28.514Z,11.59
2023-03-24T09:42:01.056Z,11.35
2023-03-24T09:44:39.518Z,11.47
2023-03-24T09:47:27.087Z,11.41
2023-03-24T09:49:55.618Z,11.44
2023-03-24T09:52:33.944Z,11.53
2023-03-24T09:55:04.970Z,11.47
2023-03-24T09:57:50.908Z,11.11
2023-03-24T10:00:22.832Z,11.31
2023-03-24T10:02:56.221Z,11.20
2023-03-24T10:05:38.885Z,11.14
2023-03-24T10:08:19.341Z,11.19
2023-03-24T10:11:01.625Z,11.04
2023-03-24T10:14:01.045Z,11.05
2023-03-24T10:17:04.642Z,10.84
2023-03-24T10:19:59.317Z,10.88
2023-03-24T10:22:44.418Z,10.76
2023-03-24T10:25:27.094Z,10.72
2023-03-24T10:31:13.850Z,10.65
2023-03-24T10:33:47.734Z,10.49
2023-03-24T10:36:20.449Z,10.58
2023-03-24T10:38:49.154Z,10.68
2023-03-24T10:41:32.885Z,10.71
2023-03-24T10:44:08.315Z,11.02
2023-03-24T10:46:38.689Z,11.14
2023-03-24T10:49:24.390Z,11.21
2023-03-24T10:52:04.006Z,11.27
2023-03-24T10:54:37.773Z,11.38
2023-03-24T10:57:15.231Z,11.47
2023-03-24T11:00:20.865Z,11.53
2023-03-24T11:03:02.393Z,11.48
2023-03-24T11:05:36.770Z,11.39
2023-03-24T11:08:13.553Z,11.39
2023-03-24T11:10:40.415Z,11.46
2023-03-24T11:13:19.011Z,11.55
2023-03-24T11:16:15.295Z,11.71
2023-03-24T11:19:05.519Z,11.86
2023-03-24T11:21:44.437Z,12.13
2023-03-24T11:24:15.685Z,12.29
2023-03-24T11:27:01.367Z,12.25
2023-03-24T11:29:32.570Z,12.14
2023-03-24T11:32:00.792Z,12.03
2023-03-24T11:34:44.732Z,12.32
2023-03-24T11:37:23.241Z,12.46
2023-03-24T11:40:18.812Z,12.63
2023-03-24T11:46:15.893Z,13.06
2023-03-24T11:48:52.703Z,13.17
2023-03-24T11:51:41.259Z,13.20
2023-03-24T11:54:18.697Z,12.94
2023-03-24T11:56:50.386Z,13.04
2023-03-24T12:02:28.919Z,13.43
2023-03-24T12:05:05.513Z,13.25
2023-03-24T12:08:09.486Z,13.44
2023-03-24T12:10:57.586Z,13.12
2023-03-24T12:13:42.004Z,12.95
2023-03-24T12:16:21.527Z,13.03
2023-03-24T12:19:21.572Z,13.41
2023-03-24T12:22:14.182Z,13.56
2023-03-24T12:25:30.454Z,13.55
2023-03-24T12:28:12.643Z,13.66
2023-03-24T12:31:37.785Z,13.73
2023-03-24T12:37:30.484Z,13.79
2023-03-24T12:47:24.432Z,13.83
2023-03-24T12:50:26.456Z,13.59
2023-03-24T12:56:30.004Z,13.91
2023-03-24T12:59:55.878Z,13.96
2023-03-24T13:02:36.581Z,13.97
2023-03-24T13:08:21.248Z,14.00
2023-03-24T13:13:44.431Z,13.88
2023-03-24T13:36:25.170Z,14.22
2023-03-24T13:57:05.973Z,14.77
2023-03-24T14:00:08.881Z,14.91
2023-03-24T14:03:06.312Z,15.03
2023-03-24T14:05:57.368Z,15.33
2023-03-24T14:08:54.576Z,15.66
2023-03-24T14:11:37.786Z,15.78
2023-03-24T14:17:18.936Z,16.07
2023-03-24T14:20:19.500Z,16.18
2023-03-24T14:22:50.873Z,16.44
2023-03-24T14:28:54.076Z,16.36
2023-03-24T14:34:27.877Z,17.07
2023-03-24T14:37:10.468Z,16.85
2023-03-24T14:39:49.313Z,16.74
2023-03-24T14:42:34.507Z,16.74
2023-03-24T14:45:04.978Z,16.77
2023-03-24T14:47:51.726Z,16.89
2023-03-24T14:53:09.586Z,16.66
2023-03-24T14:58:34.503Z,16.21
2023-03-24T15:07:27.109Z,16.32
2023-03-24T15:12:54.888Z,16.02
2023-03-24T15:15:30.223Z,16.21
2023-03-24T15:18:12.536Z,16.15
2023-03-24T15:25:03.025Z,16.10
2023-03-24T15:27:34.512Z,15.98
2023-03-24T15:30:14.390Z,15.64
2023-03-24T15:32:46.414Z,15.90
2023-03-24T15:41:05.431Z,15.83
2023-03-24T15:43:34.902Z,15.72
2023-03-24T15:46:12.368Z,15.78
2023-03-24T15:51:51.086Z,16.05
2023-03-24T15:57:32.654Z,16.00
2023-03-24T16:00:02.363Z,15.98
2023-03-24T16:02:55.307Z,15.67
2023-03-24T16:05:35.159Z,15.72
2023-03-24T16:08:15.273Z,15.71
2023-03-24T16:11:39.148Z,15.67
2023-03-24T16:14:35.644Z,15.52
2023-03-24T16:17:08.355Z,15.56
2023-03-24T16:22:18.912Z,15.40
2023-03-24T16:24:51.019Z,15.27
2023-03-24T16:27:54.100Z,15.06
2023-03-24T16:30:28.187Z,15.29
2023-03-24T16:33:11.487Z,15.13
2023-03-24T16:41:16.832Z,15.38
2023-03-24T16:46:54.865Z,14.88
2023-03-24T16:49:31.513Z,14.86
2023-03-24T16:52:19.969Z,15.35
2023-03-24T17:00:45.481Z,15.48
2023-03-24T17:17:57.156Z,14.82
2023-03-24T17:23:43.267Z,14.84
2023-03-24T17:28:52.410Z,14.76
2023-03-24T17:46:23.693Z,14.33
2023-03-24T17:51:39.492Z,14.23
2023-03-24T17:54:06.417Z,14.11
2023-03-24T18:07:45.066Z,14.07
2023-03-24T18:10:16.426Z,14.04
2023-03-24T18:15:28.190Z,14.01
2023-03-24T18:20:41.635Z,14.01
2023-03-24T18:23:13.367Z,13.79
2023-03-24T18:25:51.390Z,13.86
2023-03-24T18:28:21.392Z,13.78
2023-03-24T18:33:40.119Z,13.63
2023-03-24T18:36:27.507Z,13.67
2023-03-24T18:47:47.153Z,13.40
2023-03-24T18:50:17.571Z,13.28
2023-03-24T18:52:46.514Z,13.17
2023-03-24T18:55:15.848Z,13.38
2023-03-24T18:57:46.656Z,13.10
2023-03-24T19:00:30.411Z,13.20
2023-03-24T19:03:13.734Z,13.19
2023-03-24T19:05:43.890Z,13.25
2023-03-24T19:14:10.264Z,13.00
2023-03-24T19:19:24.769Z,12.64
2023-03-24T19:21:59.568Z,12.94
2023-03-24T19:27:11.916Z,13.10
2023-03-24T19:29:40.592Z,12.98
2023-03-24T19:32:08.761Z,13.13
2023-03-24T19:37:22.113Z,13.07
2023-03-24T19:39:54.457Z,12.83
2023-03-24T19:42:28.757Z,12.85
2023-03-24T19:47:38.059Z,12.34
2023-03-24T19:50:10.131Z,12.35
2023-03-24T19:52:41.278Z,12.33
2023-03-24T19:55:15.560Z,11.98
2023-03-24T20:00:46.646Z,11.78
2023-03-24T20:03:17.423Z,11.89
2023-03-24T20:05:52.508Z,11.81
2023-03-24T20:08:31.646Z,11.70
2023-03-24T20:11:01.122Z,11.67
2023-03-24T20:13:36.811Z,11.63
2023-03-24T20:16:17.830Z,11.59
2023-03-24T20:18:49.500Z,11.32
2023-03-24T20:21:30.717Z,11.47
2023-03-24T20:26:52.406Z,11.53
2023-03-24T20:32:05.195Z,11.44
2023-03-24T20:37:23.986Z,11.56
2023-03-24T20:40:18.001Z,11.63
2023-03-24T20:42:59.306Z,11.66
2023-03-24T20:45:30.299Z,11.55
2023-03-24T20:48:03.037Z,11.73
2023-03-24T20:50:48.916Z,11.80
2023-03-24T20:53:29.930Z,11.66
2023-03-24T20:56:14.053Z,11.87
2023-03-24T20:58:50.287Z,11.33
2023-03-24T21:01:36.205Z,11.64
2023-03-24T21:04:28.460Z,11.69
2023-03-24T21:07:07.624Z,11.64
2023-03-24T21:09:37.322Z,11.54
2023-03-24T21:14:58.530Z,11.83
2023-03-24T21:17:33.020Z,11.68
2023-03-24T21:26:01.037Z,11.70
2023-03-24T21:28:34.799Z,11.87
2023-03-24T21:34:21.615Z,11.19
2023-03-24T21:37:00.792Z,11.31
2023-03-24T21:39:55.406Z,11.59
2023-03-24T21:42:27.508Z,11.67
2023-03-24T21:44:56.829Z,11.42
2023-03-24T21:47:39.033Z,11.55
2023-03-24T21:50:08.121Z,11.53
2023-03-24T21:52:39.457Z,11.26
2023-03-24T21:55:21.592Z,11.13
2023-03-24T21:57:55.760Z,11.20
2023-03-24T22:00:35.506Z,11.04
2023-03-24T22:03:12.504Z,10.81
2023-03-24T22:05:42.974Z,10.58
2023-03-24T22:11:00.056Z,10.62
2023-03-24T22:13:33.821Z,10.75
2023-03-24T22:16:11.386Z,10.57
2023-03-24T22:21:20.119Z,10.38
2023-03-24T22:27:18.843Z,10.22
2023-03-24T22:29:48.940Z,10.19
2023-03-24T22:32:17.937Z,10.20
2023-03-24T22:38:36.353Z,10.30
2023-03-24T22:41:20.143Z,10.35
2023-03-24T22:47:16.479Z,9.81
2023-03-24T22:49:54.094Z,10.11
2023-03-24T22:52:20.894Z,9.70
2023-03-24T22:54:54.188Z,9.63
2023-03-24T22:57:27.016Z,10.13
2023-03-24T23:00:02.218Z,10.27
2023-03-24T23:02:31.852Z,10.18
2023-03-24T23:05:03.199Z,10.02
2023-03-24T23:07:33.131Z,10.24
2023-03-24T23:10:11.150Z,10.22
2023-03-24T23:12:39.777Z,10.03
2023-03-24T23:15:08.263Z,9.90
2023-03-24T23:17:40.533Z,9.83
2023-03-24T23:20:13.484Z,9.91
2023-03-24T23:22:43.087Z,9.77
2023-03-24T23:25:19.596Z,9.76
2023-03-24T23:27:50.190Z,9.69
2023-03-24T23:30:19.192Z,9.67
2023-03-24T23:32:51.179Z,9.70
2023-03-24T23:35:21.209Z,9.66
2023-03-24T23:37:51.088Z,9.64
2023-03-24T23:40:25.774Z,9.30
2023-03-24T23:42:56.360Z,9.24
2023-03-24T23:45:26.536Z,9.25
2023-03-24T23:47:57.421Z,9.10
2023-03-24T23:50:27.512Z,8.96
2023-03-24T23:53:05.238Z,8.84
2023-03-24T23:55:39.443Z,8.48
2023-03-24T23:58:12.260Z,8.50
